Time;durP1;ratioP1;P1;durP2;ratioP2;P2;SDS_P1;SDS_P2;PMS_P1;PMS_P2;Temp;Humidity;BMP_temperature;BMP_pressure;BME280_temperature;BME280_humidity;BME280_pressure;Samples;Min_cycle;Max_cycle;Signal;HPM_P1;HPM_P2
2021/03/08 00:02:20;;;;;;;25.95;12.23;;;;;;;-3.17;81.78;99148.94;4972023;28;20398;-73
2021/03/08 00:04:45;;;;;;;28.20;13.27;;;;;;;-3.17;81.56;99159.50;4954619;28;20027;-73
2021/03/08 00:07:11;;;;;;;27.48;13.27;;;;;;;-3.16;82.09;99163.00;4957075;28;20114;-73
2021/03/08 00:09:38;;;;;;;32.25;14.48;;;;;;;-3.21;81.97;99173.06;4956732;28;20110;-73
2021/03/08 00:12:04;;;;;;;36.90;15.75;;;;;;;-3.39;81.48;99165.44;4955876;29;20121;-72
2021/03/08 00:14:29;;;;;;;32.28;14.20;;;;;;;-3.36;82.60;99157.28;4956871;29;20057;-73
2021/03/08 00:16:55;;;;;;;27.33;13.60;;;;;;;-3.39;82.29;99162.78;4971373;28;20027;-73
2021/03/08 00:19:20;;;;;;;27.67;13.70;;;;;;;-3.36;82.68;99182.91;4948928;28;20027;-73
2021/03/08 00:21:46;;;;;;;29.83;13.70;;;;;;;-3.48;82.79;99165.22;4956815;28;20026;-73
2021/03/08 00:24:12;;;;;;;26.00;12.82;;;;;;;-3.27;82.79;99174.34;4957737;28;20023;-74
2021/03/08 00:26:37;;;;;;;24.50;12.18;;;;;;;-3.34;82.37;99168.59;4956694;28;20023;-73
2021/03/08 00:29:03;;;;;;;27.10;13.45;;;;;;;-3.49;82.44;99163.53;4939154;29;20031;-72
2021/03/08 00:31:28;;;;;;;27.10;13.00;;;;;;;-3.56;82.98;99177.19;4956142;29;20039;-72
2021/03/08 00:33:53;;;;;;;27.02;12.55;;;;;;;-3.56;82.95;99168.41;4943370;29;20063;-72
2021/03/08 00:36:18;;;;;;;25.15;11.63;;;;;;;-3.48;81.80;99168.72;4952046;28;20027;-73
2021/03/08 00:38:44;;;;;;;26.88;12.65;;;;;;;-3.59;82.30;99172.13;4936042;29;20554;-72
2021/03/08 00:41:09;;;;;;;24.65;12.32;;;;;;;-3.82;82.69;99146.41;4951812;29;20023;-73
2021/03/08 00:43:34;;;;;;;27.42;12.82;;;;;;;-3.82;82.67;99165.75;4936263;29;20106;-75
2021/03/08 00:45:59;;;;;;;27.27;12.25;;;;;;;-3.96;83.10;99155.22;4937829;29;20032;-73
2021/03/08 00:48:25;;;;;;;31.45;13.43;;;;;;;-3.86;84.03;99166.88;4966179;28;20029;-73
2021/03/08 00:50:50;;;;;;;29.52;14.18;;;;;;;-3.77;83.32;99178.66;4974083;28;20069;-73
2021/03/08 00:53:15;;;;;;;27.15;12.35;;;;;;;-3.89;83.55;99179.47;4975581;28;20030;-73
2021/03/08 00:55:41;;;;;;;23.60;11.07;;;;;;;-3.99;83.81;99166.84;4970701;28;20055;-73
2021/03/08 00:58:06;;;;;;;24.90;11.50;;;;;;;-3.94;83.73;99177.13;4969065;28;20030;-73
2021/03/08 01:00:31;;;;;;;25.50;11.65;;;;;;;-3.92;83.63;99174.41;4975089;28;20035;-72
2021/03/08 01:02:57;;;;;;;26.13;11.90;;;;;;;-3.98;83.52;99167.72;4957115;28;20066;-72
2021/03/08 01:05:23;;;;;;;26.48;12.38;;;;;;;-3.94;84.02;99163.91;4955832;28;20500;-72
2021/03/08 01:07:49;;;;;;;25.80;11.35;;;;;;;-3.93;83.82;99162.97;4955810;28;20059;-73
2021/03/08 01:10:19;;;;;;;23.30;11.75;;;;;;;-3.98;83.86;99165.09;4955487;28;20481;-72
2021/03/08 01:12:45;;;;;;;25.05;11.50;;;;;;;-4.01;83.47;99163.50;4970466;28;20496;-73
2021/03/08 01:15:12;;;;;;;26.10;11.05;;;;;;;-4.20;83.89;99134.78;4954395;28;20389;-73
2021/03/08 01:17:37;;;;;;;24.05;11.38;;;;;;;-4.13;83.55;99151.09;4954978;28;20035;-72
2021/03/08 01:20:14;;;;;;;24.40;12.23;;;;;;;-4.24;83.82;99161.53;4956035;28;20780;-73
2021/03/08 01:22:39;;;;;;;24.38;11.82;;;;;;;-4.22;83.64;99147.28;4954167;28;20038;-72
2021/03/08 01:25:13;;;;;;;30.15;12.63;;;;;;;-4.34;83.51;99140.16;4976765;28;20023;-72
2021/03/08 01:27:39;;;;;;;25.30;10.95;;;;;;;-4.27;83.83;99128.25;4937805;28;20512;-72
2021/03/08 01:30:13;;;;;;;22.85;10.55;;;;;;;-4.27;83.91;99148.50;4942442;28;20023;-72
2021/03/08 01:32:38;;;;;;;21.17;11.13;;;;;;;-4.31;83.89;99142.59;4960447;28;20037;-72
2021/03/08 01:35:04;;;;;;;20.90;10.87;;;;;;;-4.31;84.16;99147.03;4955033;28;20031;-73
2021/03/08 01:37:30;;;;;;;22.88;11.05;;;;;;;-4.43;84.62;99153.94;4953674;28;20119;-72
2021/03/08 01:39:55;;;;;;;25.73;13.23;;;;;;;-4.44;84.56;99163.66;4943702;28;20024;-72
2021/03/08 01:42:21;;;;;;;25.67;13.45;;;;;;;-4.49;84.69;99151.72;4938485;29;20034;-73
2021/03/08 01:44:47;;;;;;;27.92;12.57;;;;;;;-4.54;84.64;99162.56;4955430;29;20098;-73
2021/03/08 01:47:13;;;;;;;24.50;12.82;;;;;;;-4.59;84.88;99147.97;4954884;28;20469;-73
2021/03/08 01:49:39;;;;;;;29.17;14.00;;;;;;;-4.53;85.27;99152.84;4953508;28;20027;-73
2021/03/08 01:52:04;;;;;;;22.00;12.02;;;;;;;-4.35;85.45;99150.81;4954392;29;20059;-73
2021/03/08 01:54:30;;;;;;;24.88;12.32;;;;;;;-4.12;84.99;99138.72;4952867;28;20409;-73
2021/03/08 01:56:56;;;;;;;25.80;12.95;;;;;;;-4.16;84.40;99148.66;4956026;28;20023;-73
2021/03/08 01:59:21;;;;;;;24.35;11.75;;;;;;;-4.31;84.17;99147.88;4954894;28;20063;-73
2021/03/08 02:01:46;;;;;;;26.77;12.77;;;;;;;-4.27;84.35;99148.50;4954936;28;20023;-73
2021/03/08 02:04:12;;;;;;;23.83;12.35;;;;;;;-4.16;83.76;99132.81;4960035;28;20485;-73
2021/03/08 02:06:37;;;;;;;22.00;11.85;;;;;;;-4.02;83.80;99126.59;4969633;28;20031;-73
2021/03/08 02:09:04;;;;;;;22.65;10.45;;;;;;;-3.95;83.23;99132.31;4955065;29;20082;-73
2021/03/08 02:11:33;;;;;;;22.85;10.05;;;;;;;-3.94;83.12;99134.84;4962033;28;20047;-72
2021/03/08 02:14:16;;;;;;;19.50;9.65;;;;;;;-4.08;83.40;99133.13;4966427;28;20027;-73
2021/03/08 02:17:07;;;;;;;21.58;10.75;;;;;;;-4.21;83.09;99122.53;4955177;28;20114;-73
2021/03/08 02:20:03;;;;;;;25.08;10.80;;;;;;;-4.30;83.99;99125.78;4954929;28;20039;-73
2021/03/08 02:22:50;;;;;;;20.85;10.80;;;;;;;-4.49;83.56;99130.59;4954327;28;20031;-73
2021/03/08 02:25:32;;;;;;;20.00;9.90;;;;;;;-4.70;83.53;99130.19;4955639;28;20066;-73
2021/03/08 02:28:26;;;;;;;25.15;11.38;;;;;;;-4.62;85.04;99134.00;4953516;28;20114;-73
2021/03/08 02:30:55;;;;;;;19.88;10.75;;;;;;;-4.64;84.46;99128.00;4935415;29;20047;-73
2021/03/08 02:33:26;;;;;;;21.08;10.57;;;;;;;-4.50;84.02;99120.97;4950023;29;20043;-73
2021/03/08 02:35:55;;;;;;;21.30;10.57;;;;;;;-4.45;83.71;99122.38;4954990;28;20035;-73
2021/03/08 02:38:27;;;;;;;18.17;9.40;;;;;;;-4.43;83.81;99104.63;4948645;28;20036;-73
2021/03/08 02:40:58;;;;;;;18.08;9.40;;;;;;;-4.13;84.13;99121.19;4935812;29;20087;-73
2021/03/08 02:43:41;;;;;;;22.60;10.37;;;;;;;-4.22;83.79;99120.84;4957107;28;20034;-73
2021/03/08 02:46:12;;;;;;;22.30;10.13;;;;;;;-4.27;83.38;99107.09;4988390;28;20031;-73
2021/03/08 02:48:40;;;;;;;27.77;11.07;;;;;;;-4.46;83.73;99106.63;4980203;28;20536;-73
2021/03/08 02:51:07;;;;;;;25.65;11.27;;;;;;;-4.48;84.40;99109.38;4970272;28;20031;-72
2021/03/08 02:53:39;;;;;;;22.30;10.57;;;;;;;-4.54;83.57;99114.19;4988829;28;20105;-73
2021/03/08 02:56:12;;;;;;;25.00;11.67;;;;;;;-4.68;83.67;99126.50;4962750;28;20398;-73
2021/03/08 02:58:41;;;;;;;22.80;10.50;;;;;;;-4.85;84.00;99113.53;4950417;28;20478;-73
2021/03/08 03:01:08;;;;;;;22.50;10.53;;;;;;;-4.83;84.92;99130.13;4947139;29;20019;-74
2021/03/08 03:03:38;;;;;;;20.07;10.20;;;;;;;-4.89;84.29;99127.88;4954750;28;20281;-73
2021/03/08 03:06:05;;;;;;;22.40;10.55;;;;;;;-4.88;84.89;99129.56;4954196;28;20035;-74
2021/03/08 03:08:32;;;;;;;20.92;10.10;;;;;;;-4.88;84.86;99132.22;4958001;28;20025;-73
2021/03/08 03:10:59;;;;;;;23.67;9.93;;;;;;;-4.50;84.94;99132.38;4958078;28;20481;-73
2021/03/08 03:13:24;;;;;;;20.23;9.70;;;;;;;-4.31;83.75;99132.00;4973005;28;20023;-73
2021/03/08 03:15:52;;;;;;;19.70;9.80;;;;;;;-4.26;82.80;99129.91;4956490;28;20366;-73
2021/03/08 03:18:18;;;;;;;22.50;9.65;;;;;;;-4.45;82.46;99127.66;4950378;28;20522;-73
2021/03/08 03:20:46;;;;;;;19.42;9.68;;;;;;;-4.43;82.67;99148.66;4953432;29;20019;-73
2021/03/08 03:23:12;;;;;;;22.25;10.40;;;;;;;-4.56;82.96;99137.22;4957608;28;20549;-75
2021/03/08 03:25:40;;;;;;;19.40;10.13;;;;;;;-4.55;82.95;99144.19;4963440;28;20034;-73
2021/03/08 03:28:06;;;;;;;21.95;10.30;;;;;;;-4.64;83.61;99141.22;4939250;29;20037;-74
2021/03/08 03:30:33;;;;;;;20.13;10.05;;;;;;;-4.65;83.95;99144.78;4945894;29;20029;-74
2021/03/08 03:32:58;;;;;;;21.98;10.38;;;;;;;-4.80;84.01;99147.56;4995861;23;21695;-71
2021/03/08 03:35:26;;;;;;;23.73;9.90;;;;;;;-5.00;84.42;99139.13;5010316;28;20047;-68
2021/03/08 03:37:54;;;;;;;22.77;10.60;;;;;;;-4.85;84.80;99150.47;5003419;28;20108;-68
2021/03/08 03:40:20;;;;;;;25.58;10.77;;;;;;;-4.93;85.10;99158.88;5000807;28;20026;-68
2021/03/08 03:42:48;;;;;;;21.88;10.48;;;;;;;-5.09;85.33;99151.09;5016270;28;20560;-68
2021/03/08 03:45:15;;;;;;;21.75;10.30;;;;;;;-5.19;84.78;99149.13;4993668;28;20026;-68
2021/03/08 03:47:41;;;;;;;21.88;10.23;;;;;;;-5.16;85.55;99162.13;4996731;28;20741;-68
2021/03/08 03:50:13;;;;;;;22.83;10.85;;;;;;;-5.26;85.33;99155.75;4996242;28;20037;-68
2021/03/08 03:52:39;;;;;;;20.87;11.17;;;;;;;-5.25;85.79;99149.50;4996201;28;20030;-68
2021/03/08 03:55:08;;;;;;;21.70;10.50;;;;;;;-5.20;85.76;99152.72;4995426;28;20449;-68
2021/03/08 03:57:45;;;;;;;24.50;11.40;;;;;;;-5.14;85.55;99176.06;4997038;28;20034;-68
2021/03/08 04:00:11;;;;;;;20.63;10.90;;;;;;;-5.17;85.16;99160.44;5015585;28;20018;-68
2021/03/08 04:03:01;;;;;;;24.85;11.40;;;;;;;-5.23;85.59;99177.50;5009035;28;20498;-68
2021/03/08 04:05:28;;;;;;;22.00;10.27;;;;;;;-5.13;85.49;99157.50;4995061;28;20064;-68
2021/03/08 04:07:54;;;;;;;24.80;10.47;;;;;;;-5.08;85.45;99180.97;5015185;28;20117;-68
2021/03/08 04:10:21;;;;;;;22.87;10.50;;;;;;;-5.17;85.81;99174.47;5007774;28;20036;-68
2021/03/08 04:12:53;;;;;;;26.20;12.07;;;;;;;-5.21;85.32;99194.06;5008363;28;20080;-68
2021/03/08 04:15:21;;;;;;;24.88;10.95;;;;;;;-5.36;84.95;99187.94;4999324;28;20438;-68
2021/03/08 04:17:48;;;;;;;21.25;10.20;;;;;;;-5.14;85.63;99195.38;5013643;28;20116;-68
2021/03/08 04:20:17;;;;;;;20.77;10.18;;;;;;;-4.94;84.74;99190.66;5008536;28;20068;-68
2021/03/08 04:22:48;;;;;;;;;;;;;;;-5.08;84.52;99180.97;4995872;28;20023;-67
2021/03/08 04:25:15;;;;;;;21.20;9.65;;;;;;;-5.30;84.12;99186.72;5000130;28;19921;-68
2021/03/08 04:27:41;;;;;;;21.15;10.50;;;;;;;-5.42;84.34;99200.63;5011128;28;20475;-68
2021/03/08 04:30:08;;;;;;;21.40;10.80;;;;;;;-5.52;84.36;99190.66;4998639;28;20169;-68
2021/03/08 04:32:33;;;;;;;19.83;10.05;;;;;;;-5.68;84.04;99187.25;4994768;28;20476;-71
2021/03/08 04:34:59;;;;;;;22.92;9.73;;;;;;;-5.61;83.65;99190.34;5006084;28;20029;-68
2021/03/08 04:37:27;;;;;;;19.80;10.20;;;;;;;-5.64;84.16;99195.81;4995294;28;20022;-68
2021/03/08 04:39:53;;;;;;;24.42;10.80;;;;;;;-5.74;84.73;99183.19;4999540;28;20034;-68
2021/03/08 04:42:19;;;;;;;24.88;11.57;;;;;;;-5.72;84.98;99204.19;5009606;28;20380;-68
2021/03/08 04:44:46;;;;;;;29.00;12.43;;;;;;;-5.84;85.29;99192.59;4993915;28;20089;-68
2021/03/08 04:47:11;;;;;;;24.88;12.63;;;;;;;-5.85;85.43;99205.84;4994266;28;20026;-68
2021/03/08 04:49:41;;;;;;;25.52;13.02;;;;;;;-5.80;86.40;99201.16;5006147;28;20086;-68
2021/03/08 04:52:08;;;;;;;27.80;12.13;;;;;;;-5.77;86.49;99195.69;5000801;28;20076;-68
2021/03/08 04:54:35;;;;;;;23.92;11.23;;;;;;;-5.62;86.12;99215.88;5014018;28;20022;-68
2021/03/08 04:57:01;;;;;;;23.45;11.27;;;;;;;-5.69;86.31;99209.25;4996577;28;20472;-70
2021/03/08 04:59:27;;;;;;;20.67;10.60;;;;;;;-5.89;86.24;99196.44;4987019;28;20026;-70
2021/03/08 05:01:55;;;;;;;25.75;11.93;;;;;;;-5.87;86.48;99199.81;4990619;28;20102;-68
2021/03/08 05:04:22;;;;;;;25.55;11.18;;;;;;;-5.84;86.41;99189.09;5008599;28;20472;-71
2021/03/08 05:06:49;;;;;;;25.95;12.80;;;;;;;-5.74;86.25;99214.81;4985092;28;20089;-74
2021/03/08 05:09:15;;;;;;;25.70;11.85;;;;;;;-5.76;86.18;99200.88;4982999;28;20022;-69
2021/03/08 05:11:43;;;;;;;21.77;11.05;;;;;;;-5.77;86.10;99211.50;4980218;28;20443;-72
2021/03/08 05:14:12;;;;;;;30.77;12.00;;;;;;;-5.65;85.94;99197.59;5000210;28;20034;-72
2021/03/08 05:16:42;;;;;;;23.13;10.90;;;;;;;-5.40;85.48;99225.13;4991901;28;20129;-71
2021/03/08 05:19:08;;;;;;;22.70;11.20;;;;;;;-5.52;85.11;99211.75;5001141;28;20370;-71
2021/03/08 05:21:34;;;;;;;20.50;10.60;;;;;;;-5.42;85.25;99221.72;4999572;28;20018;-74
2021/03/08 05:24:01;;;;;;;25.70;10.85;;;;;;;-5.32;85.44;99223.75;4993475;28;20032;-73
2021/03/08 05:26:28;;;;;;;26.20;10.95;;;;;;;-5.33;85.48;99208.00;4984712;28;20510;-72
2021/03/08 05:28:55;;;;;;;23.42;10.88;;;;;;;-5.40;85.44;99215.41;4981123;28;20035;-74
2021/03/08 05:31:23;;;;;;;21.85;10.90;;;;;;;-5.64;85.73;99191.38;4988242;28;20015;-74
2021/03/08 05:33:54;;;;;;;19.73;8.07;;;;;;;-5.68;85.98;99200.44;4987858;28;20035;-71
2021/03/08 05:36:21;;;;;;;23.17;11.05;;;;;;;-5.79;85.62;99208.97;4988455;28;20313;-67
2021/03/08 05:38:47;;;;;;;22.50;11.77;;;;;;;-5.84;85.88;99202.25;4994512;28;20034;-71
2021/03/08 05:41:12;;;;;;;23.95;11.75;;;;;;;-5.72;86.35;99209.44;5009287;28;20026;-74
2021/03/08 05:43:40;;;;;;;38.65;16.77;;;;;;;-5.73;86.12;99198.06;4990559;28;20034;-72
2021/03/08 05:46:14;;;;;;;42.10;20.45;;;;;;;-5.62;85.85;99215.03;4992928;28;20028;-72
2021/03/08 05:48:52;;;;;;;46.05;18.70;;;;;;;-5.66;85.63;99221.41;4993396;28;20057;-73
2021/03/08 05:51:23;;;;;;;28.20;13.82;;;;;;;-5.62;85.19;99226.41;4982993;28;20027;-70
2021/03/08 05:53:57;;;;;;;28.67;13.95;;;;;;;-5.60;85.04;99226.34;5007164;28;20088;-73
2021/03/08 05:56:47;;;;;;;25.15;12.38;;;;;;;-5.65;84.52;99225.75;4992299;28;20022;-73
2021/03/08 05:59:30;;;;;;;37.30;15.02;;;;;;;-5.51;84.54;99236.31;4993147;28;20038;-74
2021/03/08 06:02:11;;;;;;;25.15;12.32;;;;;;;-5.39;84.69;99240.88;4982877;28;20483;-72
2021/03/08 06:05:03;;;;;;;25.42;12.73;;;;;;;-5.33;83.99;99239.66;4987614;28;20030;-74
2021/03/08 06:07:47;;;;;;;24.95;11.73;;;;;;;-5.26;83.61;99238.34;4993251;28;20427;-72
2021/03/08 06:10:21;;;;;;;25.48;11.43;;;;;;;-5.20;81.78;99253.78;4994279;28;20018;-72
2021/03/08 06:12:49;;;;;;;22.30;10.25;;;;;;;-5.37;80.90;99240.75;4992576;28;20026;-71
2021/03/08 06:15:16;;;;;;;22.48;9.75;;;;;;;-5.12;80.36;99253.31;4992295;28;20049;-67
2021/03/08 06:17:43;;;;;;;18.92;9.93;;;;;;;-4.13;77.50;99262.06;5008494;28;20033;-69
2021/03/08 06:20:09;;;;;;;21.02;10.00;;;;;;;-2.72;72.52;99256.97;4992955;28;20028;-72
2021/03/08 06:22:35;;;;;;;22.85;9.15;;;;;;;-1.67;68.20;99255.56;5003055;28;20034;-68
2021/03/08 06:25:02;;;;;;;20.67;9.02;;;;;;;-0.98;66.30;99253.78;4992299;28;20041;-72
2021/03/08 06:27:29;;;;;;;18.50;9.32;;;;;;;-0.24;63.22;99251.47;5004708;28;20027;-73
2021/03/08 06:29:56;;;;;;;19.75;9.52;;;;;;;0.46;61.44;99257.28;4991734;28;20023;-73
2021/03/08 06:32:22;;;;;;;19.63;9.25;;;;;;;0.89;61.23;99253.66;5005338;28;20085;-72
2021/03/08 06:34:47;;;;;;;19.63;9.95;;;;;;;1.01;60.49;99252.63;5001387;28;20072;-75
2021/03/08 06:37:14;;;;;;;21.13;9.75;;;;;;;1.27;59.91;99246.88;4992964;28;20121;-70
2021/03/08 06:39:42;;;;;;;19.25;10.07;;;;;;;1.96;58.91;99264.78;4994473;28;20034;-73
2021/03/08 06:42:08;;;;;;;18.10;9.75;;;;;;;3.06;55.08;99260.00;5007683;28;20066;-67
2021/03/08 06:44:34;;;;;;;16.85;8.82;;;;;;;3.48;54.39;99251.59;4997108;28;20186;-70
2021/03/08 06:47:00;;;;;;;23.27;9.23;;;;;;;3.67;53.50;99249.81;4993901;28;20500;-71
2021/03/08 06:49:26;;;;;;;18.55;9.20;;;;;;;4.31;52.15;99266.75;4992146;28;20026;-68
2021/03/08 06:52:05;;;;;;;16.20;9.73;;;;;;;5.12;50.97;99263.94;4991373;28;20137;-72
2021/03/08 06:54:32;;;;;;;19.63;11.90;;;;;;;5.95;49.41;99257.16;4990959;28;20088;-72
2021/03/08 06:56:58;;;;;;;20.00;10.90;;;;;;;6.61;47.58;99256.31;4981304;28;20369;-73
2021/03/08 06:59:23;;;;;;;18.42;11.10;;;;;;;6.79;46.10;99251.63;4996754;28;20057;-74
2021/03/08 07:01:51;;;;;;;22.77;12.52;;;;;;;6.82;45.71;99271.13;4992313;28;20101;-71
2021/03/08 07:04:18;;;;;;;16.60;10.25;;;;;;;7.10;45.46;99268.91;4990875;28;20566;-71
2021/03/08 07:07:09;;;;;;;15.25;10.32;;;;;;;7.65;44.46;99268.13;4993814;28;20026;-73
2021/03/08 07:09:47;;;;;;;76.43;45.65;;;;;;;7.71;44.94;99263.91;4981412;28;20107;-76
2021/03/08 07:12:14;;;;;;;25.95;17.02;;;;;;;8.71;43.77;99264.91;5007182;28;20133;-74
2021/03/08 07:14:41;;;;;;;22.85;13.15;;;;;;;9.33;43.27;99271.16;5002026;28;20082;-76
2021/03/08 07:17:35;;;;;;;21.15;12.60;;;;;;;8.94;42.29;99264.91;5013472;28;20026;-74
2021/03/08 07:20:05;;;;;;;14.20;9.68;;;;;;;9.32;42.76;99277.56;5014690;28;20006;-70
2021/03/08 07:22:50;;;;;;;15.73;9.70;;;;;;;8.68;43.78;99269.84;5007264;28;20026;-69
2021/03/08 07:25:27;;;;;;;16.45;10.18;;;;;;;9.84;41.38;99277.50;4999762;28;20034;-73
2021/03/08 07:27:58;;;;;;;15.55;9.05;;;;;;;9.71;41.66;99274.59;5008315;28;20046;-73
2021/03/08 07:30:26;;;;;;;17.55;11.98;;;;;;;10.39;40.50;99258.25;5010056;28;20027;-75
2021/03/08 07:33:12;;;;;;;21.00;11.88;;;;;;;11.48;38.48;99263.41;5015031;28;20061;-72
2021/03/08 07:35:46;;;;;;;22.00;12.05;;;;;;;10.55;39.25;99266.09;5029875;28;20022;-71
2021/03/08 07:38:13;;;;;;;17.38;11.43;;;;;;;11.45;38.22;99274.59;5011556;28;20026;-72
2021/03/08 07:40:42;;;;;;;23.75;12.68;;;;;;;11.79;36.72;99271.94;5011342;28;20094;-73
2021/03/08 07:43:18;;;;;;;19.63;13.65;;;;;;;10.69;38.80;99270.66;5016979;28;20030;-72
2021/03/08 07:45:45;;;;;;;16.63;11.10;;;;;;;12.72;36.37;99288.59;5010372;28;20022;-71
2021/03/08 07:48:15;;;;;;;15.77;11.05;;;;;;;11.75;36.73;99275.25;5021074;28;20038;-73
2021/03/08 07:50:43;;;;;;;18.33;10.80;;;;;;;11.35;38.34;99269.56;5010842;28;20038;-71
2021/03/08 07:53:24;;;;;;;16.05;10.85;;;;;;;12.42;36.62;99279.97;5011217;28;20120;-73
2021/03/08 07:55:52;;;;;;;19.20;12.35;;;;;;;12.52;36.74;99262.44;5010456;28;20010;-71
2021/03/08 07:58:18;;;;;;;21.35;11.68;;;;;;;12.22;36.37;99281.78;5013200;28;20030;-72
2021/03/08 08:00:43;;;;;;;18.13;11.27;;;;;;;11.57;37.26;99278.47;5001547;28;20037;-69
2021/03/08 08:03:08;;;;;;;15.40;10.77;;;;;;;11.15;37.96;99275.63;4999843;28;20014;-70
2021/03/08 08:05:34;;;;;;;14.27;10.68;;;;;;;12.33;36.75;99278.47;5005976;28;20026;-70
2021/03/08 08:08:00;;;;;;;17.25;11.10;;;;;;;10.33;39.85;99281.47;4996310;28;20026;-70
2021/03/08 08:10:26;;;;;;;13.55;9.60;;;;;;;11.56;37.86;99277.63;4995576;28;20034;-70
2021/03/08 08:12:54;;;;;;;15.38;9.82;;;;;;;13.31;35.16;99270.75;4995204;28;20092;-70
2021/03/08 08:15:23;;;;;;;17.02;10.52;;;;;;;13.24;36.58;99274.47;4993119;28;20034;-70
2021/03/08 08:17:53;;;;;;;14.10;9.00;;;;;;;13.81;35.79;99273.81;4989145;28;20484;-71
2021/03/08 08:20:20;;;;;;;15.10;9.95;;;;;;;12.98;36.19;99275.28;4990048;28;20045;-70
2021/03/08 08:22:59;;;;;;;13.85;9.82;;;;;;;13.74;35.66;99280.31;4991183;28;20026;-73
2021/03/08 08:25:28;;;;;;;12.25;9.35;;;;;;;11.99;37.79;99282.06;4995339;28;20030;-74
2021/03/08 08:27:54;;;;;;;15.70;9.82;;;;;;;11.67;38.60;99272.69;5010757;28;20030;-74
2021/03/08 08:30:27;;;;;;;13.45;9.40;;;;;;;12.84;37.14;99279.88;4994719;28;20046;-73
2021/03/08 08:32:58;;;;;;;12.98;9.65;;;;;;;13.09;37.24;99263.81;4988763;28;20029;-75
2021/03/08 08:35:31;;;;;;;14.05;9.90;;;;;;;13.76;35.71;99264.63;4975588;28;20101;-74
2021/03/08 08:38:21;;;;;;;14.25;10.27;;;;;;;15.32;33.74;99249.75;4989455;28;20038;-73
2021/03/08 08:40:46;;;;;;;;;;;;;;;15.77;33.06;99271.38;5009854;28;20482;-74
2021/03/08 08:43:15;;;;;;;13.50;9.57;;;;;;;15.28;34.08;99254.00;5011952;28;20004;-80
2021/03/08 08:45:45;;;;;;;13.63;9.82;;;;;;;15.55;34.23;99252.69;5005780;28;20554;-75
2021/03/08 08:48:10;;;;;;;11.30;8.82;;;;;;;16.23;32.89;99267.31;4994539;28;20034;-76
2021/03/08 08:50:49;;;;;;;13.48;9.23;;;;;;;16.97;31.65;99267.16;4993585;28;20022;-71
2021/03/08 08:53:30;;;;;;;12.52;9.38;;;;;;;15.69;33.46;99266.22;4994213;28;20022;-73
2021/03/08 08:55:55;;;;;;;17.42;10.00;;;;;;;15.75;33.32;99249.78;4992266;28;20050;-75
2021/03/08 08:58:29;;;;;;;13.70;9.93;;;;;;;16.12;32.82;99259.88;4988159;28;20491;-76
2021/03/08 09:01:14;;;;;;;13.27;9.57;;;;;;;17.40;31.45;99261.41;4986617;28;20033;-74
2021/03/08 09:03:59;;;;;;;13.07;10.55;;;;;;;13.42;36.89;99271.16;4993880;28;20514;-79
2021/03/08 09:06:44;;;;;;;11.98;9.95;;;;;;;15.20;34.39;99265.19;4996686;28;20026;-72
2021/03/08 09:09:21;;;;;;;14.90;10.25;;;;;;;16.52;32.34;99260.19;5008998;28;20030;-74
2021/03/08 09:11:57;;;;;;;15.27;10.15;;;;;;;14.25;35.72;99272.22;4989851;28;20237;-74
2021/03/08 09:14:52;;;;;;;12.15;9.63;;;;;;;15.02;34.41;99255.88;4990679;28;20033;-75
2021/03/08 09:17:48;;;;;;;13.60;10.18;;;;;;;16.04;32.76;99260.19;4989173;28;20042;-74
2021/03/08 09:20:13;;;;;;;12.13;9.10;;;;;;;14.82;34.79;99258.72;4988783;28;20492;-73
2021/03/08 09:22:50;;;;;;;9.35;7.65;;;;;;;15.55;32.43;99252.69;4990027;28;20038;-74
2021/03/08 09:25:19;;;;;;;11.38;8.40;;;;;;;16.54;31.92;99251.78;4991796;28;20040;-73
2021/03/08 09:27:59;;;;;;;12.80;7.75;;;;;;;17.14;31.43;99257.22;4992859;28;20034;-74
2021/03/08 09:30:28;;;;;;;12.52;8.55;;;;;;;16.26;32.16;99261.38;4993577;28;20049;-74
2021/03/08 09:35:28;;;;;;;11.77;8.03;;;;;;;16.61;32.08;99260.69;5031262;23;20050;-75
2021/03/08 09:37:56;;;;;;;10.93;8.15;;;;;;;17.36;30.89;99259.38;5027792;28;20293;-75
2021/03/08 09:40:30;;;;;;;10.02;7.10;;;;;;;18.72;29.77;99261.81;5010577;28;20021;-73
2021/03/08 09:42:57;;;;;;;12.32;7.47;;;;;;;18.78;29.02;99255.34;4994138;28;20038;-76
2021/03/08 09:45:27;;;;;;;9.50;7.18;;;;;;;17.96;29.54;99256.44;5013955;28;20037;-74
2021/03/08 09:47:53;;;;;;;6.90;6.20;;;;;;;16.65;30.41;99265.47;5013523;28;20076;-69
2021/03/08 09:50:33;;;;;;;7.72;5.93;;;;;;;18.20;29.26;99250.91;5013440;28;20423;-76
2021/03/08 09:52:59;;;;;;;8.52;5.97;;;;;;;17.90;29.43;99257.41;5011044;28;20026;-75
2021/03/08 09:55:32;;;;;;;8.30;5.88;;;;;;;17.70;28.88;99255.00;5012421;28;20050;-74
2021/03/08 09:57:57;;;;;;;8.20;5.97;;;;;;;18.15;29.55;99246.97;5006911;28;20025;-73
2021/03/08 10:00:27;;;;;;;7.30;6.38;;;;;;;19.12;28.93;99248.00;5011138;28;20108;-76
2021/03/08 10:03:00;;;;;;;8.43;5.63;;;;;;;17.36;30.53;99259.38;5031064;28;20032;-70
2021/03/08 10:05:40;;;;;;;9.23;5.45;;;;;;;18.73;29.18;99247.00;5012940;28;20029;-72
2021/03/08 10:08:07;;;;;;;4.63;4.13;;;;;;;18.56;28.45;99250.53;5005507;28;20133;-74
2021/03/08 10:10:56;;;;;;;7.03;6.05;;;;;;;19.36;27.65;99239.63;5013385;28;20041;-72
2021/03/08 10:13:23;;;;;;;5.80;4.95;;;;;;;20.11;27.67;99241.00;5011205;28;20037;-78
2021/03/08 10:15:57;;;;;;;7.80;5.20;;;;;;;18.06;28.84;99239.41;5011232;28;20120;-71
2021/03/08 10:18:31;;;;;;;7.50;5.20;;;;;;;17.35;30.23;99247.63;5017650;28;20026;-78
2021/03/08 10:20:59;;;;;;;7.00;5.38;;;;;;;17.83;30.19;99243.00;5014754;28;20376;-76
2021/03/08 10:23:31;;;;;;;6.68;5.38;;;;;;;17.12;30.17;99242.13;5003684;28;20088;-75
2021/03/08 10:26:02;;;;;;;6.78;4.97;;;;;;;19.03;29.35;99236.63;4998683;28;20031;-77
2021/03/08 10:28:36;;;;;;;7.95;5.47;;;;;;;19.78;28.30;99237.28;5025555;28;20124;-77
2021/03/08 10:31:02;;;;;;;9.18;5.45;;;;;;;18.44;28.59;99238.78;5028405;28;20088;-74
2021/03/08 10:33:28;;;;;;;6.38;4.75;;;;;;;18.83;28.06;99244.47;5006716;28;20025;-75
2021/03/08 10:35:54;;;;;;;7.40;4.90;;;;;;;18.21;29.30;99227.91;4997605;28;20044;-73
2021/03/08 10:38:27;;;;;;;7.28;4.35;;;;;;;17.52;29.89;99240.34;5011930;28;20026;-70
2021/03/08 10:40:57;;;;;;;6.85;4.40;;;;;;;18.17;29.85;99235.78;5011323;28;20053;-75
2021/03/08 10:43:24;;;;;;;6.55;4.90;;;;;;;17.96;28.81;99232.63;5001813;28;20534;-71
2021/03/08 10:45:55;;;;;;;8.98;4.82;;;;;;;17.52;29.13;99242.25;4999418;28;20033;-78
2021/03/08 10:48:20;;;;;;;7.28;4.80;;;;;;;16.31;30.40;99236.13;4993910;28;20122;-75
2021/03/08 10:50:47;;;;;;;7.70;4.57;;;;;;;17.45;29.92;99236.09;4992640;28;20030;-72
2021/03/08 10:53:13;;;;;;;5.65;4.78;;;;;;;17.22;29.95;99232.25;5015185;28;20021;-71
2021/03/08 10:55:40;;;;;;;7.30;4.88;;;;;;;18.13;29.22;99227.25;5017165;28;20030;-71
2021/03/08 10:58:06;;;;;;;4.93;3.92;;;;;;;20.16;27.53;99221.84;5024865;28;20053;-72
2021/03/08 11:00:33;;;;;;;5.43;4.53;;;;;;;19.37;28.17;99209.19;5012755;28;20151;-71
2021/03/08 11:03:00;;;;;;;7.75;4.88;;;;;;;19.37;27.60;99219.34;4994126;28;20026;-72
2021/03/08 11:05:27;;;;;;;6.30;4.25;;;;;;;19.79;27.25;99219.72;5017440;28;20037;-78
2021/03/08 11:07:52;;;;;;;14.15;5.10;;;;;;;18.16;28.71;99214.97;5006200;28;20029;-79
2021/03/08 11:10:34;;;;;;;8.05;4.57;;;;;;;20.40;27.14;99216.06;4999758;28;20027;-77
2021/03/08 11:13:08;;;;;;;5.47;4.82;;;;;;;21.04;26.81;99224.47;5036573;28;20353;-75
2021/03/08 11:15:35;;;;;;;8.10;4.72;;;;;;;21.27;26.15;99206.75;5001432;28;20030;-73
2021/03/08 11:18:01;;;;;;;6.28;5.07;;;;;;;19.93;27.23;99214.69;5015587;28;20078;-77
2021/03/08 11:20:29;;;;;;;8.30;5.22;;;;;;;19.54;27.75;99203.66;5008229;28;20392;-74
2021/03/08 11:23:00;;;;;;;5.70;4.80;;;;;;;18.40;28.07;99202.00;4991805;28;20368;-74
2021/03/08 11:25:29;;;;;;;7.03;4.78;;;;;;;17.69;29.42;99225.97;4991188;28;20634;-74
2021/03/08 11:27:56;;;;;;;7.15;4.95;;;;;;;18.64;28.96;99224.66;5014256;28;20047;-74
2021/03/08 11:30:22;;;;;;;8.18;4.32;;;;;;;21.02;26.27;99216.47;5005504;28;20615;-75
2021/03/08 11:32:52;;;;;;;8.30;4.30;;;;;;;22.05;25.26;99204.22;4997529;28;20403;-72
2021/03/08 11:35:24;;;;;;;6.90;4.38;;;;;;;21.62;24.77;99208.16;5011300;28;20061;-72
2021/03/08 11:37:52;;;;;;;5.75;4.55;;;;;;;22.39;24.56;99203.81;5002693;28;20033;-72